Time;durP1;ratioP1;P1;durP2;ratioP2;P2;SDS_P1;SDS_P2;PMS_P1;PMS_P2;Temp;Humidity;BMP_temperature;BMP_pressure;BME280_temperature;BME280_humidity;BME280_pressure;Samples;Min_cycle;Max_cycle;Signal;HPM_P1;HPM_P2
2023/09/30 00:00:11;;;;;;;13.93;4.77;;;;;;;;;;5105462;28;20624;-72
2023/09/30 00:02:38;;;;;;;4.87;4.33;;;;;;;;;;5102041;28;20598;-72
2023/09/30 00:05:06;;;;;;;8.23;4.37;;;;;;;;;;5093915;28;20242;-72
2023/09/30 00:07:32;;;;;;;8.17;4.53;;;;;;;;;;5102144;28;20223;-72
2023/09/30 00:10:00;;;;;;;7.87;4.47;;;;;;;;;;5111987;28;20253;-72
2023/09/30 00:12:27;;;;;;;10.70;5.27;;;;;;;;;;5099759;28;20239;-72
2023/09/30 00:14:54;;;;;;;9.50;4.87;;;;;;;;;;5104560;28;20193;-72
2023/09/30 00:17:20;;;;;;;6.67;4.27;;;;;;;;;;5091623;28;20201;-72
2023/09/30 00:19:47;;;;;;;7.57;4.70;;;;;;;;;;5105191;28;20740;-72
2023/09/30 00:22:14;;;;;;;4.80;4.30;;;;;;;;;;5091043;28;20211;-72
2023/09/30 00:24:40;;;;;;;4.83;4.27;;;;;;;;;;5091229;28;20635;-72
2023/09/30 00:27:08;;;;;;;11.97;4.07;;;;;;;;;;5090845;28;20236;-72
2023/09/30 00:29:35;;;;;;;7.37;4.80;;;;;;;;;;5090745;28;20200;-72
2023/09/30 00:32:02;;;;;;;11.23;4.47;;;;;;;;;;5090520;28;20196;-72
2023/09/30 00:34:29;;;;;;;8.10;4.70;;;;;;;;;;5110935;28;20199;-72
2023/09/30 00:36:56;;;;;;;5.97;4.57;;;;;;;;;;5098191;28;20203;-72
2023/09/30 00:39:26;;;;;;;10.53;4.97;;;;;;;;;;5090952;28;20200;-72
2023/09/30 00:41:54;;;;;;;5.80;4.23;;;;;;;;;;5103915;28;20253;-72
2023/09/30 00:44:22;;;;;;;9.87;4.67;;;;;;;;;;5111440;28;20206;-72
2023/09/30 00:46:49;;;;;;;5.60;4.57;;;;;;;;;;5096787;28;20220;-72
2023/09/30 00:49:18;;;;;;;13.57;4.60;;;;;;;;;;5111361;28;20252;-72
2023/09/30 00:51:45;;;;;;;11.70;4.53;;;;;;;;;;5110748;28;20256;-72
2023/09/30 00:54:11;;;;;;;9.93;4.40;;;;;;;;;;5112596;28;20199;-72
2023/09/30 00:56:44;;;;;;;10.20;4.13;;;;;;;;;;5114987;28;20204;-72
2023/09/30 00:59:11;;;;;;;14.23;4.90;;;;;;;;;;5115327;28;20199;-72
2023/09/30 01:01:39;;;;;;;4.57;4.17;;;;;;;;;;5111805;28;20625;-72
2023/09/30 01:04:07;;;;;;;8.23;4.60;;;;;;;;;;5094901;28;20635;-72
2023/09/30 01:06:33;;;;;;;10.97;4.83;;;;;;;;;;5094572;28;20231;-72
2023/09/30 01:09:00;;;;;;;8.87;3.97;;;;;;;;;;5094916;28;20269;-72
2023/09/30 01:11:27;;;;;;;5.27;4.33;;;;;;;;;;5111701;28;20223;-72
2023/09/30 01:13:54;;;;;;;6.33;4.80;;;;;;;;;;5114852;28;20204;-72
2023/09/30 01:16:22;;;;;;;10.27;5.03;;;;;;;;;;5101085;28;20286;-72
2023/09/30 01:18:50;;;;;;;6.33;5.07;;;;;;;;;;5104031;28;20623;-72
2023/09/30 01:21:17;;;;;;;6.83;4.27;;;;;;;;;;5112281;28;20226;-72
2023/09/30 01:23:46;;;;;;;11.83;4.63;;;;;;;;;;5103847;28;20208;-72
2023/09/30 01:26:14;;;;;;;8.37;4.30;;;;;;;;;;5098740;28;20659;-72
2023/09/30 01:28:41;;;;;;;8.60;4.83;;;;;;;;;;5103064;28;20224;-72
2023/09/30 01:31:08;;;;;;;5.23;3.83;;;;;;;;;;5107523;28;20678;-72
2023/09/30 01:33:35;;;;;;;9.23;5.03;;;;;;;;;;5094430;28;20207;-72
2023/09/30 01:36:02;;;;;;;5.40;4.10;;;;;;;;;;5094328;28;20207;-72
2023/09/30 01:38:28;;;;;;;10.83;4.60;;;;;;;;;;5106337;28;20738;-72
2023/09/30 01:40:56;;;;;;;7.57;4.63;;;;;;;;;;5100500;28;20207;-72
2023/09/30 01:43:23;;;;;;;9.63;5.17;;;;;;;;;;5114401;28;20700;-72
2023/09/30 01:45:50;;;;;;;5.87;5.00;;;;;;;;;;5108328;28;20214;-72
2023/09/30 01:48:16;;;;;;;7.70;5.07;;;;;;;;;;5094142;28;20228;-72
2023/09/30 01:50:43;;;;;;;5.40;4.23;;;;;;;;;;5113570;28;20244;-72
2023/09/30 01:53:10;;;;;;;5.10;4.53;;;;;;;;;;5100701;28;20211;-72
2023/09/30 01:55:37;;;;;;;8.60;5.03;;;;;;;;;;5107374;28;20218;-72
2023/09/30 01:58:05;;;;;;;11.53;5.63;;;;;;;;;;5094057;28;20214;-72
2023/09/30 02:00:32;;;;;;;8.13;4.40;;;;;;;;;;5101134;28;20217;-72
2023/09/30 02:02:59;;;;;;;7.37;3.80;;;;;;;;;;5113413;28;20204;-72
2023/09/30 02:05:26;;;;;;;6.03;4.17;;;;;;;;;;5100824;28;20737;-72
2023/09/30 02:07:53;;;;;;;7.57;4.47;;;;;;;;;;5099736;28;20231;-72
2023/09/30 02:10:21;;;;;;;9.83;5.87;;;;;;;;;;5114213;28;20198;-72
2023/09/30 02:12:47;;;;;;;4.87;4.30;;;;;;;;;;5112227;28;20226;-72
2023/09/30 02:15:16;;;;;;;8.40;4.70;;;;;;;;;;5101519;28;20246;-72
2023/09/30 02:17:45;;;;;;;10.57;3.90;;;;;;;;;;5098548;28;20203;-72
2023/09/30 02:20:15;;;;;;;11.37;4.27;;;;;;;;;;5093493;28;20202;-72
2023/09/30 02:22:44;;;;;;;4.50;4.10;;;;;;;;;;5095617;28;20215;-72
2023/09/30 02:25:12;;;;;;;10.27;5.00;;;;;;;;;;5103614;28;20246;-72
2023/09/30 02:27:41;;;;;;;12.20;4.80;;;;;;;;;;5096076;28;20226;-72
2023/09/30 02:30:09;;;;;;;8.30;5.87;;;;;;;;;;5102796;28;20693;-72
2023/09/30 02:32:37;;;;;;;9.60;4.93;;;;;;;;;;5106398;28;20678;-72
2023/09/30 02:35:06;;;;;;;8.37;5.53;;;;;;;;;;5092773;28;20211;-72
2023/09/30 02:37:35;;;;;;;9.00;4.53;;;;;;;;;;5092392;28;20207;-72
2023/09/30 02:40:03;;;;;;;11.07;5.27;;;;;;;;;;5093433;28;20254;-72
2023/09/30 02:42:30;;;;;;;8.10;4.20;;;;;;;;;;5097602;28;20202;-72
2023/09/30 02:44:57;;;;;;;11.27;4.23;;;;;;;;;;5101024;28;20207;-72
2023/09/30 02:47:24;;;;;;;5.07;4.13;;;;;;;;;;5092678;28;20225;-72
2023/09/30 02:49:52;;;;;;;11.13;4.80;;;;;;;;;;5092816;28;20273;-72
2023/09/30 02:52:18;;;;;;;12.17;5.23;;;;;;;;;;5098172;28;20192;-72
2023/09/30 02:54:45;;;;;;;6.60;5.00;;;;;;;;;;5113557;28;20208;-72
2023/09/30 02:57:12;;;;;;;8.37;4.53;;;;;;;;;;5106588;28;20597;-72
2023/09/30 02:59:39;;;;;;;7.03;4.60;;;;;;;;;;5092398;28;20223;-72
2023/09/30 03:02:06;;;;;;;8.10;4.77;;;;;;;;;;5106017;28;20274;-72
2023/09/30 03:04:33;;;;;;;9.73;4.97;;;;;;;;;;5092687;28;20204;-73
2023/09/30 03:07:02;;;;;;;9.67;5.00;;;;;;;;;;5105396;28;20696;-72
2023/09/30 03:09:28;;;;;;;8.20;4.83;;;;;;;;;;5105490;28;20207;-72
2023/09/30 03:11:56;;;;;;;6.23;4.20;;;;;;;;;;5092530;28;20278;-72
2023/09/30 03:14:23;;;;;;;8.20;5.30;;;;;;;;;;5093732;28;20214;-72
2023/09/30 03:16:49;;;;;;;10.43;4.70;;;;;;;;;;5111345;28;20765;-72
2023/09/30 03:19:17;;;;;;;5.27;4.53;;;;;;;;;;5098550;28;20212;-72
2023/09/30 03:21:44;;;;;;;6.03;4.97;;;;;;;;;;5112328;28;20290;-72
2023/09/30 03:24:12;;;;;;;5.80;5.20;;;;;;;;;;5111088;28;20203;-72
2023/09/30 03:26:40;;;;;;;9.63;5.33;;;;;;;;;;5091836;28;20632;-72
2023/09/30 03:29:08;;;;;;;11.60;6.10;;;;;;;;;;5092177;28;20255;-72
2023/09/30 03:31:36;;;;;;;8.17;5.30;;;;;;;;;;5092081;28;20203;-72
2023/09/30 03:34:03;;;;;;;6.03;4.87;;;;;;;;;;5092316;28;20201;-72
2023/09/30 03:36:30;;;;;;;8.37;4.83;;;;;;;;;;5101829;28;20705;-72
2023/09/30 03:38:59;;;;;;;7.80;4.80;;;;;;;;;;5094774;28;20195;-72
2023/09/30 03:41:28;;;;;;;8.43;5.60;;;;;;;;;;5102177;28;20290;-72
2023/09/30 03:43:55;;;;;;;9.17;5.00;;;;;;;;;;5098550;28;20256;-72
2023/09/30 03:46:21;;;;;;;7.03;5.00;;;;;;;;;;5100539;28;20660;-72
2023/09/30 03:48:50;;;;;;;9.03;5.00;;;;;;;;;;5096499;28;20234;-72
2023/09/30 03:51:16;;;;;;;5.73;5.23;;;;;;;;;;5111927;28;20217;-72
2023/09/30 03:53:43;;;;;;;5.60;4.83;;;;;;;;;;5111634;28;20203;-72
2023/09/30 03:56:11;;;;;;;8.23;4.37;;;;;;;;;;5099908;28;20200;-72
2023/09/30 03:58:40;;;;;;;6.83;5.63;;;;;;;;;;5091333;28;20743;-72
2023/09/30 04:01:07;;;;;;;10.30;5.43;;;;;;;;;;5104398;28;20204;-72
2023/09/30 04:03:34;;;;;;;5.63;4.90;;;;;;;;;;5098005;28;20696;-72
2023/09/30 04:06:03;;;;;;;11.37;4.83;;;;;;;;;;5097812;28;20565;-72
2023/09/30 04:08:33;;;;;;;7.70;5.57;;;;;;;;;;5091137;28;20228;-72
2023/09/30 04:11:00;;;;;;;12.93;5.70;;;;;;;;;;5091252;28;20204;-72
2023/09/30 04:13:27;;;;;;;8.80;6.17;;;;;;;;;;5091428;28;20269;-72
2023/09/30 04:15:55;;;;;;;8.90;5.33;;;;;;;;;;5104824;28;20587;-72
2023/09/30 04:18:22;;;;;;;8.37;6.23;;;;;;;;;;5090961;28;20592;-72
2023/09/30 04:20:49;;;;;;;10.40;5.83;;;;;;;;;;5091369;28;20735;-72
2023/09/30 04:23:16;;;;;;;8.70;6.07;;;;;;;;;;5103758;28;20252;-72
2023/09/30 04:25:44;;;;;;;6.93;5.70;;;;;;;;;;5104347;28;20704;-72
2023/09/30 04:28:11;;;;;;;7.53;5.47;;;;;;;;;;5090142;28;20670;-72
2023/09/30 04:30:38;;;;;;;10.93;5.63;;;;;;;;;;5106082;28;20203;-72
2023/09/30 04:33:07;;;;;;;10.30;6.30;;;;;;;;;;5102699;28;20202;-72
2023/09/30 04:35:35;;;;;;;8.83;6.57;;;;;;;;;;5106883;28;20210;-72
2023/09/30 04:38:02;;;;;;;9.20;5.47;;;;;;;;;;5101670;28;20210;-72
2023/09/30 04:40:29;;;;;;;9.87;5.43;;;;;;;;;;5090814;28;20695;-71
2023/09/30 04:42:58;;;;;;;9.00;5.93;;;;;;;;;;5091556;28;20290;-72
2023/09/30 04:45:26;;;;;;;8.70;5.83;;;;;;;;;;5093759;28;20234;-72
2023/09/30 04:47:52;;;;;;;7.13;5.87;;;;;;;;;;5100377;28;20333;-71
2023/09/30 04:50:21;;;;;;;14.03;6.10;;;;;;;;;;5094082;28;20675;-72
2023/09/30 04:52:51;;;;;;;7.67;5.27;;;;;;;;;;5111426;28;20192;-72
2023/09/30 04:55:18;;;;;;;10.20;5.80;;;;;;;;;;5097642;28;20227;-72
2023/09/30 04:57:46;;;;;;;7.20;5.97;;;;;;;;;;5098983;28;20200;-72
2023/09/30 05:00:14;;;;;;;11.13;5.33;;;;;;;;;;5095455;28;20206;-72
2023/09/30 05:02:40;;;;;;;8.37;5.93;;;;;;;;;;5110633;28;20214;-72
2023/09/30 05:05:08;;;;;;;7.53;5.70;;;;;;;;;;5096928;28;20208;-72
2023/09/30 05:07:36;;;;;;;8.40;6.37;;;;;;;;;;5110872;28;20195;-72
2023/09/30 05:10:05;;;;;;;10.53;6.63;;;;;;;;;;5091669;28;20197;-72
2023/09/30 05:12:32;;;;;;;9.60;6.50;;;;;;;;;;5103082;28;20790;-72
2023/09/30 05:14:59;;;;;;;15.77;7.83;;;;;;;;;;5091101;28;20201;-72
2023/09/30 05:17:29;;;;;;;8.37;6.83;;;;;;;;;;5103541;28;20643;-72
2023/09/30 05:19:57;;;;;;;7.80;7.00;;;;;;;;;;5103745;28;20283;-72
2023/09/30 05:22:24;;;;;;;12.67;7.43;;;;;;;;;;5103586;28;20208;-72
2023/09/30 05:24:53;;;;;;;11.67;6.90;;;;;;;;;;5090433;28;20258;-72
2023/09/30 05:27:20;;;;;;;12.07;7.53;;;;;;;;;;5104070;28;20267;-72
2023/09/30 05:29:46;;;;;;;9.27;7.40;;;;;;;;;;5097813;28;20226;-72
2023/09/30 05:32:14;;;;;;;12.70;8.43;;;;;;;;;;5096285;28;20205;-72
2023/09/30 05:34:41;;;;;;;14.37;7.03;;;;;;;;;;5097880;28;20197;-72
2023/09/30 05:37:07;;;;;;;15.93;6.17;;;;;;;;;;5109585;28;20589;-72
2023/09/30 05:39:35;;;;;;;8.60;7.37;;;;;;;;;;5091485;28;20588;-72
2023/09/30 05:42:05;;;;;;;8.27;7.07;;;;;;;;;;5093387;28;20206;-72
2023/09/30 05:44:32;;;;;;;7.90;6.97;;;;;;;;;;5094195;28;20203;-72
2023/09/30 05:46:59;;;;;;;8.70;7.07;;;;;;;;;;5109407;28;20199;-72
2023/09/30 05:49:26;;;;;;;9.63;6.33;;;;;;;;;;5114465;28;20222;-72
2023/09/30 05:51:54;;;;;;;10.23;6.60;;;;;;;;;;5111366;28;20211;-72
2023/09/30 05:54:21;;;;;;;12.90;7.20;;;;;;;;;;5093638;28;20207;-73
2023/09/30 05:56:49;;;;;;;10.07;7.63;;;;;;;;;;5097016;28;20199;-72
2023/09/30 05:59:17;;;;;;;7.37;6.50;;;;;;;;;;5104359;28;20204;-72
2023/09/30 06:01:46;;;;;;;13.00;7.03;;;;;;;;;;5093660;28;20196;-72
2023/09/30 06:04:13;;;;;;;9.27;6.30;;;;;;;;;;5104626;28;20198;-72
2023/09/30 06:06:40;;;;;;;11.07;6.50;;;;;;;;;;5109105;28;20717;-72
2023/09/30 06:09:07;;;;;;;24.50;8.27;;;;;;;;;;5093649;28;20230;-72
2023/09/30 06:11:35;;;;;;;7.90;6.70;;;;;;;;;;5092879;28;20210;-72
2023/09/30 06:14:06;;;;;;;11.83;6.93;;;;;;;;;;5093652;28;20200;-72
2023/09/30 06:16:34;;;;;;;11.37;7.13;;;;;;;;;;5107090;28;20555;-72
2023/09/30 06:19:02;;;;;;;9.47;7.07;;;;;;;;;;5106456;28;20572;-72
2023/09/30 06:21:29;;;;;;;11.90;8.20;;;;;;;;;;5113175;28;20202;-72
2023/09/30 06:23:56;;;;;;;7.43;6.73;;;;;;;;;;5100876;28;20231;-72
2023/09/30 06:26:24;;;;;;;13.80;7.40;;;;;;;;;;5099349;28;20199;-72
2023/09/30 06:28:54;;;;;;;15.50;8.50;;;;;;;;;;5099433;28;20223;-72
2023/09/30 06:31:21;;;;;;;16.33;7.70;;;;;;;;;;5100675;28;20203;-72
2023/09/30 06:33:49;;;;;;;11.07;6.80;;;;;;;;;;5099972;28;20207;-72
2023/09/30 06:36:16;;;;;;;12.50;6.83;;;;;;;;;;5113615;28;20196;-72
2023/09/30 06:38:44;;;;;;;12.70;8.10;;;;;;;;;;5097940;28;20686;-72
2023/09/30 06:41:16;;;;;;;12.60;7.77;;;;;;;;;;5093197;28;20299;-72
2023/09/30 06:43:43;;;;;;;9.80;7.37;;;;;;;;;;5095972;28;20268;-72
2023/09/30 06:46:10;;;;;;;20.47;11.57;;;;;;;;;;5103355;28;20216;-72
2023/09/30 06:48:37;;;;;;;9.03;7.80;;;;;;;;;;5092657;28;20223;-72
2023/09/30 06:51:05;;;;;;;11.10;7.70;;;;;;;;;;5091819;28;20285;-72
2023/09/30 06:53:33;;;;;;;20.67;8.07;;;;;;;;;;5092845;28;20211;-72
2023/09/30 06:56:00;;;;;;;11.63;7.00;;;;;;;;;;5092509;28;20787;-72
2023/09/30 06:58:26;;;;;;;7.40;6.70;;;;;;;;;;5092705;28;20200;-72
2023/09/30 07:00:54;;;;;;;9.73;6.87;;;;;;;;;;5103997;28;20204;-72
2023/09/30 07:03:21;;;;;;;7.67;6.87;;;;;;;;;;5098988;28;20234;-72
2023/09/30 07:05:49;;;;;;;9.47;6.43;;;;;;;;;;5101170;28;20230;-72
2023/09/30 07:08:17;;;;;;;8.87;6.83;;;;;;;;;;5105937;28;20287;-72
2023/09/30 07:10:45;;;;;;;9.97;6.47;;;;;;;;;;5092411;28;20208;-72
2023/09/30 07:13:12;;;;;;;11.73;6.90;;;;;;;;;;5105312;28;20316;-72
2023/09/30 07:15:39;;;;;;;12.03;5.00;;;;;;;;;;5092267;28;20204;-72
2023/09/30 07:18:06;;;;;;;8.60;5.67;;;;;;;;;;5092001;28;20192;-72
2023/09/30 07:20:33;;;;;;;11.53;5.00;;;;;;;;;;5092141;28;20207;-72
2023/09/30 07:23:00;;;;;;;5.43;4.77;;;;;;;;;;5092023;28;20197;-72
2023/09/30 07:25:31;;;;;;;7.63;4.50;;;;;;;;;;5092230;28;20207;-72
2023/09/30 07:27:58;;;;;;;5.47;4.13;;;;;;;;;;5098183;28;20222;-72
2023/09/30 07:30:26;;;;;;;5.47;4.43;;;;;;;;;;5098910;28;20231;-72
2023/09/30 07:32:52;;;;;;;7.23;4.97;;;;;;;;;;5091823;28;20204;-73
2023/09/30 07:35:19;;;;;;;5.17;4.00;;;;;;;;;;5091749;28;20678;-73
2023/09/30 07:37:46;;;;;;;8.00;4.77;;;;;;;;;;5091796;28;20211;-72
2023/09/30 07:40:13;;;;;;;6.13;4.30;;;;;;;;;;5092394;28;20204;-73
2023/09/30 07:42:41;;;;;;;7.27;4.93;;;;;;;;;;5104265;28;20207;-73
2023/09/30 07:45:10;;;;;;;6.90;3.97;;;;;;;;;;5105501;28;20731;-73
2023/09/30 07:47:36;;;;;;;3.37;3.03;;;;;;;;;;5099601;28;20208;-72
2023/09/30 07:50:09;;;;;;;3.53;3.20;;;;;;;;;;5097154;28;20228;-72
2023/09/30 07:52:36;;;;;;;4.20;3.10;;;;;;;;;;5091770;28;20287;-72
2023/09/30 07:55:04;;;;;;;10.97;4.10;;;;;;;;;;5104971;28;20208;-72
2023/09/30 07:57:31;;;;;;;6.87;3.97;;;;;;;;;;5091603;28;20245;-72
2023/09/30 08:00:00;;;;;;;4.77;3.27;;;;;;;;;;5104680;28;20709;-72
2023/09/30 08:02:32;;;;;;;11.77;4.47;;;;;;;;;;5101118;28;20227;-72
2023/09/30 08:04:59;;;;;;;6.30;4.00;;;;;;;;;;5093940;28;20196;-72
2023/09/30 08:07:26;;;;;;;4.93;3.83;;;;;;;;;;5091108;28;20204;-72
2023/09/30 08:09:53;;;;;;;4.23;3.83;;;;;;;;;;5091523;28;20232;-72
2023/09/30 08:12:20;;;;;;;10.30;4.13;;;;;;;;;;5091196;28;20228;-72
2023/09/30 08:14:51;;;;;;;4.40;3.87;;;;;;;;;;5090787;28;20207;-72
2023/09/30 08:17:19;;;;;;;4.60;3.40;;;;;;;;;;5103255;28;20208;-72
2023/09/30 08:19:47;;;;;;;4.07;3.67;;;;;;;;;;5092376;28;20200;-72
2023/09/30 08:22:14;;;;;;;4.27;3.40;;;;;;;;;;5091079;28;20385;-72
2023/09/30 08:24:41;;;;;;;5.00;3.87;;;;;;;;;;5104499;28;20678;-72
2023/09/30 08:27:08;;;;;;;7.37;3.70;;;;;;;;;;5103588;28;20199;-72
2023/09/30 08:29:36;;;;;;;4.40;4.00;;;;;;;;;;5097695;28;20235;-72
2023/09/30 08:32:04;;;;;;;5.23;4.60;;;;;;;;;;5097601;28;20227;-72
2023/09/30 08:34:33;;;;;;;9.63;3.40;;;;;;;;;;5097552;28;20196;-72
2023/09/30 08:37:00;;;;;;;5.13;3.90;;;;;;;;;;5097392;28;20228;-73
2023/09/30 08:39:28;;;;;;;7.03;4.63;;;;;;;;;;5104263;28;20204;-72
2023/09/30 08:41:56;;;;;;;12.17;4.97;;;;;;;;;;5091171;28;20686;-72
2023/09/30 08:44:23;;;;;;;10.40;4.23;;;;;;;;;;5103455;28;20200;-72
2023/09/30 08:46:50;;;;;;;6.67;4.57;;;;;;;;;;5105129;28;20207;-72
2023/09/30 08:49:17;;;;;;;7.13;4.00;;;;;;;;;;5102921;28;20234;-72
2023/09/30 08:51:46;;;;;;;11.07;5.30;;;;;;;;;;5090358;28;20204;-72
2023/09/30 08:54:13;;;;;;;5.17;4.77;;;;;;;;;;5099516;28;20207;-72
2023/09/30 08:56:43;;;;;;;7.50;4.17;;;;;;;;;;5108830;28;20208;-72
2023/09/30 08:59:12;;;;;;;11.50;4.20;;;;;;;;;;5099529;28;20685;-72
2023/09/30 09:01:39;;;;;;;5.97;3.60;;;;;;;;;;5094787;28;20204;-72
2023/09/30 09:04:08;;;;;;;5.37;4.03;;;;;;;;;;5090636;28;20215;-72
2023/09/30 09:06:34;;;;;;;9.50;4.77;;;;;;;;;;5090502;28;20208;-72
2023/09/30 09:09:16;;;;;;;9.00;4.60;;;;;;;;;;5090450;28;20215;-72
2023/09/30 09:11:43;;;;;;;6.10;3.73;;;;;;;;;;5096214;28;20231;-72
2023/09/30 09:14:10;;;;;;;8.63;4.33;;;;;;;;;;5110662;28;20203;-72
2023/09/30 09:16:37;;;;;;;5.87;4.03;;;;;;;;;;5108773;28;20642;-72
2023/09/30 09:19:14;;;;;;;5.07;4.33;;;;;;;;;;5094536;28;20200;-72
2023/09/30 09:21:54;;;;;;;8.83;4.50;;;;;;;;;;5094506;28;20196;-72
2023/09/30 09:24:30;;;;;;;10.80;4.00;;;;;;;;;;5097247;28;20758;-72
2023/09/30 09:27:05;;;;;;;5.87;3.87;;;;;;;;;;5114712;28;20195;-72
2023/09/30 09:29:31;;;;;;;6.73;4.17;;;;;;;;;;5100817;28;20215;-72
2023/09/30 09:32:08;;;;;;;5.90;3.60;;;;;;;;;;5101991;28;20205;-73
2023/09/30 09:34:35;;;;;;;6.73;3.40;;;;;;;;;;5101750;28;20205;-72
2023/09/30 09:37:13;;;;;;;11.27;4.57;;;;;;;;;;5099633;28;20219;-72
2023/09/30 09:39:50;;;;;;;6.63;4.10;;;;;;;;;;5103495;28;20268;-72
2023/09/30 09:42:25;;;;;;;7.03;4.40;;;;;;;;;;5114142;28;20592;-72
2023/09/30 09:44:54;;;;;;;7.23;4.50;;;;;;;;;;5103068;28;20959;-72
2023/09/30 09:47:22;;;;;;;7.47;4.50;;;;;;;;;;5112097;28;20206;-72
2023/09/30 09:49:49;;;;;;;6.93;4.40;;;;;;;;;;5114701;28;20219;-72
2023/09/30 09:52:16;;;;;;;5.77;4.07;;;;;;;;;;5108352;28;20671;-72
2023/09/30 09:54:46;;;;;;;8.17;4.50;;;;;;;;;;5094187;28;20278;-72
2023/09/30 09:57:13;;;;;;;8.05;4.43;;;;;;;;;;5107393;28;20261;-72
2023/09/30 09:59:40;;;;;;;7.17;4.80;;;;;;;;;;5093577;28;20208;-72
2023/09/30 10:02:11;;;;;;;9.18;5.00;;;;;;;;;;5093573;28;20196;-72
2023/09/30 10:04:38;;;;;;;10.65;4.72;;;;;;;;;;5107730;28;20286;-72
2023/09/30 10:07:05;;;;;;;6.88;4.80;;;;;;;;;;5113575;28;20564;-72
2023/09/30 10:09:33;;;;;;;10.75;5.10;;;;;;;;;;5113371;28;20223;-72
2023/09/30 10:12:03;;;;;;;8.98;4.88;;;;;;;;;;5113386;28;20620;-73
2023/09/30 10:14:33;;;;;;;5.43;4.88;;;;;;;;;;5114100;28;20253;-73
2023/09/30 10:17:01;;;;;;;8.00;4.27;;;;;;;;;;5113698;28;20203;-72
2023/09/30 10:19:29;;;;;;;4.63;4.20;;;;;;;;;;5111266;28;20703;-72
2023/09/30 10:22:25;;;;;;;9.70;5.13;;;;;;;;;;5102898;28;20255;-72
2023/09/30 10:24:53;;;;;;;7.93;4.70;;;;;;;;;;5093468;28;20235;-72
2023/09/30 10:27:37;;;;;;;9.30;4.77;;;;;;;;;;5092133;28;20212;-72
2023/09/30 10:30:16;;;;;;;8.73;5.17;;;;;;;;;;5093326;28;20235;-73
2023/09/30 10:33:12;;;;;;;13.00;6.00;;;;;;;;;;5092951;28;20211;-72
2023/09/30 10:35:46;;;;;;;4.53;4.13;;;;;;;;;;5106572;28;20256;-72
2023/09/30 10:38:40;;;;;;;8.47;4.47;;;;;;;;;;5093321;28;20246;-72
2023/09/30 10:41:08;;;;;;;9.03;5.40;;;;;;;;;;5092558;28;20201;-72
2023/09/30 10:43:38;;;;;;;5.33;4.80;;;;;;;;;;5107041;28;20253;-72
2023/09/30 10:46:07;;;;;;;5.47;3.93;;;;;;;;;;5092997;28;20547;-72
2023/09/30 10:48:41;;;;;;;6.43;4.73;;;;;;;;;;5094279;28;20589;-72
2023/09/30 10:51:20;;;;;;;7.63;5.43;;;;;;;;;;5103160;28;20615;-72
2023/09/30 10:53:50;;;;;;;4.40;3.80;;;;;;;;;;5092647;28;20283;-72
2023/09/30 10:56:17;;;;;;;4.63;4.23;;;;;;;;;;5104232;28;20717;-72
2023/09/30 10:58:47;;;;;;;5.03;4.13;;;;;;;;;;5107424;28;20671;-72
2023/09/30 11:01:16;;;;;;;7.77;6.10;;;;;;;;;;5092573;28;20567;-72
2023/09/30 11:03:43;;;;;;;11.18;5.15;;;;;;;;;;5092818;28;20266;-72
2023/09/30 11:06:17;;;;;;;9.77;5.97;;;;;;;;;;5092332;28;20196;-72
2023/09/30 11:08:46;;;;;;;13.63;4.70;;;;;;;;;;5092499;28;20207;-72
2023/09/30 11:11:14;;;;;;;6.93;3.60;;;;;;;;;;5091799;28;20316;-72
2023/09/30 11:13:41;;;;;;;9.17;4.20;;;;;;;;;;5092746;28;20720;-72
2023/09/30 11:16:09;;;;;;;6.57;4.60;;;;;;;;;;5106088;28;20221;-72
2023/09/30 11:18:38;;;;;;;5.90;4.60;;;;;;;;;;5101038;28;20211;-72
2023/09/30 11:21:12;;;;;;;5.40;4.50;;;;;;;;;;5096040;28;20777;-72
2023/09/30 11:23:41;;;;;;;3.80;3.43;;;;;;;;;;5092314;28;20279;-72
2023/09/30 11:26:07;;;;;;;8.07;4.03;;;;;;;;;;5092084;28;20200;-72
2023/09/30 11:28:39;;;;;;;11.47;5.37;;;;;;;;;;5103792;28;20199;-72
2023/09/30 11:31:11;;;;;;;13.67;5.27;;;;;;;;;;5093045;28;20230;-72
2023/09/30 11:33:56;;;;;;;10.40;4.23;;;;;;;;;;5092168;28;20200;-72
2023/09/30 11:36:24;;;;;;;9.03;4.53;;;;;;;;;;5092177;28;20216;-72
2023/09/30 11:38:52;;;;;;;6.30;3.40;;;;;;;;;;5093380;28;20204;-72
2023/09/30 11:41:19;;;;;;;5.97;3.97;;;;;;;;;;5102734;28;20196;-72
2023/09/30 11:44:07;;;;;;;4.60;4.00;;;;;;;;;;5091426;28;20200;-72
2023/09/30 11:46:53;;;;;;;6.47;5.43;;;;;;;;;;5104449;28;20204;-73
2023/09/30 11:49:31;;;;;;;5.37;4.10;;;;;;;;;;5091886;28;20727;-72
2023/09/30 11:51:59;;;;;;;27.60;5.60;;;;;;;;;;5108509;28;20219;-72
2023/09/30 11:54:37;;;;;;;7.27;3.77;;;;;;;;;;5112019;28;20678;-71
2023/09/30 11:57:04;;;;;;;4.57;4.17;;;;;;;;;;5098245;28;20206;-72
2023/09/30 11:59:31;;;;;;;6.70;3.90;;;;;;;;;;5098679;28;20800;-72
2023/09/30 12:01:59;;;;;;;6.80;4.67;;;;;;;;;;5104493;28;20196;-72
2023/09/30 12:04:26;;;;;;;9.30;4.75;;;;;;;;;;5091731;28;20630;-72
2023/09/30 12:06:53;;;;;;;19.63;6.50;;;;;;;;;;5091315;28;20676;-72
2023/09/30 12:09:26;;;;;;;3.80;3.47;;;;;;;;;;5105080;28;20753;-72
2023/09/30 12:11:53;;;;;;;7.73;4.30;;;;;;;;;;5099125;28;20239;-72
2023/09/30 12:14:20;;;;;;;7.00;4.40;;;;;;;;;;5111398;28;20249;-72
2023/09/30 12:16:49;;;;;;;6.77;3.80;;;;;;;;;;5111284;28;20204;-72
2023/09/30 12:19:18;;;;;;;4.83;4.37;;;;;;;;;;5095790;28;20203;-72
2023/09/30 12:21:47;;;;;;;6.13;3.73;;;;;;;;;;5090739;28;20204;-72
2023/09/30 12:24:16;;;;;;;12.33;4.10;;;;;;;;;;5091367;28;20639;-72
2023/09/30 12:26:47;;;;;;;5.10;4.60;;;;;;;;;;5100610;28;20234;-72
2023/09/30 12:29:16;;;;;;;5.60;4.33;;;;;;;;;;5097495;28;20195;-72
2023/09/30 12:31:43;;;;;;;5.67;4.17;;;;;;;;;;5100404;28;20802;-72
2023/09/30 12:34:10;;;;;;;5.30;4.60;;;;;;;;;;5104801;28;20204;-72
2023/09/30 12:36:38;;;;;;;6.53;4.60;;;;;;;;;;5091148;28;20685;-72
2023/09/30 12:39:10;;;;;;;4.03;3.73;;;;;;;;;;5108884;28;20198;-72
2023/09/30 12:41:37;;;;;;;5.95;4.50;;;;;;;;;;5098834;28;20702;-72
2023/09/30 12:44:04;;;;;;;9.45;4.45;;;;;;;;;;5104909;28;20197;-72
2023/09/30 12:46:34;;;;;;;6.60;3.90;;;;;;;;;;5103115;28;20806;-71
2023/09/30 12:49:02;;;;;;;5.00;3.83;;;;;;;;;;5090606;28;20204;-72
2023/09/30 12:51:28;;;;;;;5.23;4.70;;;;;;;;;;5103467;28;20219;-72
2023/09/30 12:53:56;;;;;;;11.90;4.00;;;;;;;;;;5091091;28;20208;-72
2023/09/30 12:56:23;;;;;;;6.10;4.13;;;;;;;;;;5090356;28;20211;-72
2023/09/30 12:58:50;;;;;;;4.40;4.10;;;;;;;;;;5097647;28;20204;-72
2023/09/30 13:01:17;;;;;;;4.60;4.20;;;;;;;;;;5110603;28;20253;-72
2023/09/30 13:03:45;;;;;;;10.63;4.83;;;;;;;;;;5110840;28;20682;-72
2023/09/30 13:06:11;;;;;;;7.97;4.03;;;;;;;;;;5095903;28;20204;-72
2023/09/30 13:08:41;;;;;;;6.07;3.97;;;;;;;;;;5091111;28;20209;-72
2023/09/30 13:11:11;;;;;;;5.10;4.37;;;;;;;;;;5104066;28;20215;-73
2023/09/30 13:13:40;;;;;;;6.50;4.40;;;;;;;;;;5090955;28;20231;-72
2023/09/30 13:16:07;;;;;;;5.27;3.90;;;;;;;;;;5106366;28;20218;-72
2023/09/30 13:18:34;;;;;;;7.33;4.23;;;;;;;;;;5101557;28;20208;-72
2023/09/30 13:21:01;;;;;;;5.37;4.10;;;;;;;;;;5092650;28;20196;-72
2023/09/30 13:23:28;;;;;;;5.30;4.70;;;;;;;;;;5101876;28;20207;-72
2023/09/30 13:25:55;;;;;;;11.27;4.30;;;;;;;;;;5090320;28;20204;-72
2023/09/30 13:28:23;;;;;;;4.90;4.43;;;;;;;;;;5099587;28;20199;-72
2023/09/30 13:30:51;;;;;;;4.77;4.13;;;;;;;;;;5097083;28;20705;-72
2023/09/30 13:33:17;;;;;;;5.93;4.07;;;;;;;;;;5110829;28;20200;-72
2023/09/30 13:35:46;;;;;;;5.33;4.17;;;;;;;;;;5107429;28;20779;-72
2023/09/30 13:38:13;;;;;;;4.70;4.30;;;;;;;;;;5100459;28;20609;-72
2023/09/30 13:40:40;;;;;;;7.40;4.60;;;;;;;;;;5097012;28;20682;-72
2023/09/30 13:43:06;;;;;;;6.43;4.50;;;;;;;;;;5110381;28;20290;-72
2023/09/30 13:45:35;;;;;;;6.70;4.07;;;;;;;;;;5093301;28;20268;-72
2023/09/30 13:48:02;;;;;;;5.43;4.50;;;;;;;;;;5090594;28;20241;-72
2023/09/30 13:50:28;;;;;;;5.97;4.60;;;;;;;;;;5108081;28;20308;-72
2023/09/30 13:52:55;;;;;;;7.53;4.20;;;;;;;;;;5110783;28;20200;-72
2023/09/30 13:55:22;;;;;;;6.43;4.20;;;;;;;;;;5105632;28;20701;-72
2023/09/30 13:57:49;;;;;;;8.23;4.40;;;;;;;;;;5101678;28;20290;-72
2023/09/30 14:00:16;;;;;;;8.57;4.40;;;;;;;;;;5096823;28;20199;-71
2023/09/30 14:02:45;;;;;;;5.20;4.70;;;;;;;;;;5102302;28;20210;-71
2023/09/30 14:05:13;;;;;;;6.40;4.77;;;;;;;;;;5093814;28;20207;-72
2023/09/30 14:07:40;;;;;;;4.70;4.23;;;;;;;;;;5106101;28;20212;-72
2023/09/30 14:10:10;;;;;;;5.13;4.67;;;;;;;;;;5108055;28;20235;-71
2023/09/30 14:12:37;;;;;;;6.13;4.93;;;;;;;;;;5093856;28;20228;-72
2023/09/30 14:15:05;;;;;;;5.70;4.57;;;;;;;;;;5100887;28;20273;-71
2023/09/30 14:17:32;;;;;;;4.60;4.10;;;;;;;;;;5100165;28;20227;-71
2023/09/30 14:20:00;;;;;;;7.87;4.43;;;;;;;;;;5106428;28;20265;-71
2023/09/30 14:22:26;;;;;;;12.00;4.87;;;;;;;;;;5107126;28;20590;-71
2023/09/30 14:24:53;;;;;;;6.63;4.20;;;;;;;;;;5100622;28;20223;-71
2023/09/30 14:27:21;;;;;;;5.93;4.60;;;;;;;;;;5113045;28;20202;-71
2023/09/30 14:29:48;;;;;;;6.17;4.70;;;;;;;;;;5100344;28;20210;-71
2023/09/30 14:32:15;;;;;;;9.70;4.37;;;;;;;;;;5113398;28;20404;-72
2023/09/30 14:34:42;;;;;;;7.23;5.00;;;;;;;;;;5113914;28;20200;-72
2023/09/30 14:37:10;;;;;;;7.27;4.37;;;;;;;;;;5113645;28;20203;-72
2023/09/30 14:39:38;;;;;;;5.37;4.33;;;;;;;;;;5104929;28;20287;-71
2023/09/30 14:42:04;;;;;;;5.77;4.63;;;;;;;;;;5094370;28;20683;-71
2023/09/30 14:44:31;;;;;;;6.27;4.17;;;;;;;;;;5113679;28;20231;-72
2023/09/30 14:46:58;;;;;;;6.30;4.27;;;;;;;;;;5110638;28;20629;-72